YQG weather

Windsor Airport
Windsor, Ontario, Canada

Public forecast

Using degrees Celsius for public forecast. Weather courtesy of forecast.io.

Current aviation weather report (METAR) for Windsor Airport

Retrieved 2019/10/16 21:00 UTC (26 minutes ago):

CYQG 162100Z AUTO 31017G29KT 9SM BKN031 BKN039 OVC048 10/06 A2963 RMK SLP038

Aviation forecast (TAF) for Windsor Airport

Retrieved 2019/10/16 18:39 UTC (3 hours ago):

TAF CYQG 161738Z 1618/1718 25015G25KT 5SM -SHRA BR OVC020 TEMPO 1618/1619 P6SM NSW BKN025 BECMG 1618/1619 30015G30KT FM161900 30015G30KT P6SM OVC025 TEMPO 1619/1703 P6SM -SHRA OVC020 FM170300 31015G25KT P6SM OVC015 FM171600 31015G25KT P6SM BKN030 RMK FCST BASED ON AUTO OBS NXT FCST BY 170000Z